Time;durP1;ratioP1;P1;durP2;ratioP2;P2;SDS_P1;SDS_P2;PMS_P1;PMS_P2;Temp;Humidity;BMP_temperature;BMP_pressure;BME280_temperature;BME280_humidity;BME280_pressure;Samples;Min_cycle;Max_cycle;Signal;HPM_P1;HPM_P2
2022/09/30 00:01:29;;;;;;;5.20;4.50;;;;;;;11.72;82.32;99507.72;5050711;28;20405;-74
2022/09/30 00:03:56;;;;;;;4.80;4.30;;;;;;;11.70;82.01;99504.50;5051805;28;20385;-74
2022/09/30 00:06:23;;;;;;;9.18;4.50;;;;;;;11.70;82.34;99515.34;5033890;28;20390;-75
2022/09/30 00:08:48;;;;;;;6.57;3.90;;;;;;;11.68;82.31;99512.06;5032009;28;20408;-74
2022/09/30 00:11:17;;;;;;;4.50;4.10;;;;;;;11.67;82.21;99515.03;5052122;28;20462;-74
2022/09/30 00:13:43;;;;;;;4.82;4.07;;;;;;;11.68;81.96;99505.81;5051903;28;20740;-74
2022/09/30 00:16:11;;;;;;;5.18;4.68;;;;;;;11.68;82.19;99511.25;5051698;28;20393;-74
2022/09/30 00:18:37;;;;;;;8.20;4.68;;;;;;;11.69;82.20;99502.81;5046588;28;20411;-74
2022/09/30 00:21:03;;;;;;;5.35;4.57;;;;;;;11.71;82.32;99508.03;5046590;28;20393;-74
2022/09/30 00:23:29;;;;;;;5.20;4.13;;;;;;;11.72;82.31;99502.31;5051821;28;20472;-74
2022/09/30 00:25:59;;;;;;;5.25;4.75;;;;;;;11.74;82.25;99510.19;5050976;28;20896;-74
2022/09/30 00:28:24;;;;;;;6.07;4.78;;;;;;;11.73;82.40;99511.25;5049638;28;20409;-74
2022/09/30 00:30:50;;;;;;;6.28;4.60;;;;;;;11.73;82.54;99508.53;5050955;28;20926;-74
2022/09/30 00:33:15;;;;;;;5.50;4.47;;;;;;;11.74;82.40;99513.72;5050456;28;20867;-75
2022/09/30 00:35:40;;;;;;;14.53;4.87;;;;;;;11.71;82.35;99516.16;5051580;28;20388;-74
2022/09/30 00:38:06;;;;;;;8.17;5.17;;;;;;;11.72;82.35;99518.59;5052343;28;20413;-74
2022/09/30 00:40:31;;;;;;;9.33;5.03;;;;;;;11.74;82.40;99515.63;5051557;28;20389;-74
2022/09/30 00:42:57;;;;;;;5.20;4.70;;;;;;;11.70;82.43;99514.50;5037847;28;20504;-74
2022/09/30 00:45:26;;;;;;;5.43;4.93;;;;;;;11.70;82.49;99511.78;5051122;28;20508;-74
2022/09/30 00:48:13;;;;;;;7.82;4.80;;;;;;;11.70;82.48;99511.78;5050182;28;20433;-74
2022/09/30 00:50:45;;;;;;;5.47;4.55;;;;;;;11.68;82.67;99519.41;5051384;28;20865;-74
2022/09/30 00:53:25;;;;;;;5.35;4.55;;;;;;;11.69;82.67;99521.81;5051345;28;20435;-74
2022/09/30 00:55:56;;;;;;;7.95;4.85;;;;;;;11.70;82.69;99519.94;5060464;28;20811;-74
2022/09/30 00:58:29;;;;;;;7.40;4.80;;;;;;;11.70;82.58;99523.50;5050110;28;20401;-74
2022/09/30 01:00:58;;;;;;;4.57;4.18;;;;;;;11.68;82.64;99530.25;5051314;28;20382;-74
2022/09/30 01:03:24;;;;;;;4.97;4.55;;;;;;;11.66;82.67;99529.69;5050926;28;20420;-74
2022/09/30 01:05:51;;;;;;;7.47;4.57;;;;;;;11.65;82.84;99523.47;5051264;28;20481;-74
2022/09/30 01:08:19;;;;;;;4.78;4.30;;;;;;;11.61;82.91;99537.88;5049260;28;20417;-74
2022/09/30 01:10:47;;;;;;;5.17;4.80;;;;;;;11.60;82.95;99539.75;5049903;28;20472;-74
2022/09/30 01:13:16;;;;;;;7.55;4.60;;;;;;;11.57;82.91;99534.06;5053871;28;20729;-74
2022/09/30 01:15:50;;;;;;;5.38;4.85;;;;;;;11.55;82.92;99537.06;5051169;28;20428;-74
2022/09/30 01:18:35;;;;;;;6.77;4.90;;;;;;;11.52;82.92;99540.31;5050120;28;20409;-74
2022/09/30 01:21:19;;;;;;;4.80;4.45;;;;;;;11.49;83.13;99531.91;5045829;28;20400;-74
2022/09/30 01:24:06;;;;;;;7.10;5.00;;;;;;;11.46;83.12;99544.91;5050996;28;20393;-74
2022/09/30 01:26:55;;;;;;;5.30;4.82;;;;;;;11.49;82.98;99542.78;5051055;28;20398;-74
2022/09/30 01:29:29;;;;;;;6.72;4.65;;;;;;;11.49;83.20;99548.19;5047084;28;20399;-74
2022/09/30 01:32:12;;;;;;;5.82;5.32;;;;;;;11.50;83.15;99549.81;5044986;28;20397;-75
2022/09/30 01:34:58;;;;;;;6.93;5.20;;;;;;;11.52;83.23;99553.06;5046640;28;20435;-74
2022/09/30 01:37:43;;;;;;;6.57;5.33;;;;;;;11.51;83.22;99548.72;5043038;28;20496;-74
2022/09/30 01:40:22;;;;;;;6.10;5.07;;;;;;;11.51;83.04;99546.84;5043121;28;20457;-75
2022/09/30 01:42:53;;;;;;;8.77;5.60;;;;;;;11.52;83.17;99544.94;5054572;28;20420;-74
2022/09/30 01:45:33;;;;;;;8.05;5.72;;;;;;;11.51;83.19;99537.88;5059311;28;20419;-74
2022/09/30 01:48:10;;;;;;;6.53;5.78;;;;;;;11.51;83.18;99544.13;5056605;28;20409;-74
2022/09/30 01:50:52;;;;;;;5.82;5.22;;;;;;;11.51;83.37;99548.72;5053066;28;20416;-74
2022/09/30 01:53:34;;;;;;;5.82;5.30;;;;;;;11.48;83.29;99547.38;5053371;28;20385;-74
2022/09/30 01:56:16;;;;;;;6.80;4.95;;;;;;;11.49;83.47;99559.88;5054629;28;20381;-75
2022/09/30 01:58:46;;;;;;;10.35;5.55;;;;;;;11.50;83.26;99566.09;5052490;28;20396;-74
2022/09/30 02:01:38;;;;;;;7.05;5.43;;;;;;;11.51;83.33;99575.84;5054294;28;20459;-75
2022/09/30 02:04:12;;;;;;;7.00;5.53;;;;;;;11.53;83.32;99581.81;5054312;28;20471;-74
2022/09/30 02:06:42;;;;;;;10.20;6.10;;;;;;;11.51;83.67;99576.69;5052953;28;20535;-74
2022/09/30 02:09:15;;;;;;;7.40;5.70;;;;;;;11.50;83.55;99580.47;5054235;28;20425;-74
2022/09/30 02:11:41;;;;;;;9.55;5.63;;;;;;;11.52;83.45;99583.75;5054043;28;20390;-74
2022/09/30 02:14:51;;;;;;;7.57;5.30;;;;;;;11.50;83.66;99587.78;5054184;28;20385;-74
2022/09/30 02:17:22;;;;;;;6.57;5.90;;;;;;;11.51;83.55;99584.81;5014942;28;20413;-75
2022/09/30 02:20:06;;;;;;;6.20;5.10;;;;;;;11.51;83.54;99590.25;5053040;28;20447;-74
2022/09/30 02:22:43;;;;;;;8.27;5.57;;;;;;;11.51;83.58;99592.13;5039221;28;20416;-74
2022/09/30 02:25:16;;;;;;;5.60;5.07;;;;;;;11.50;83.54;99590.50;5054030;28;20377;-74
2022/09/30 02:27:50;;;;;;;9.10;5.20;;;;;;;11.51;83.59;99595.66;5048669;28;20424;-74
2022/09/30 02:30:16;;;;;;;8.07;4.95;;;;;;;11.51;83.45;99592.97;5045716;28;20401;-74
2022/09/30 02:33:00;;;;;;;4.80;4.40;;;;;;;11.51;83.41;99600.28;5052235;28;20397;-74
2022/09/30 02:35:33;;;;;;;5.85;4.80;;;;;;;11.48;83.35;99598.09;5053690;28;20790;-74
2022/09/30 02:38:04;;;;;;;5.63;5.13;;;;;;;11.44;83.53;99595.94;5035078;28;20501;-74
2022/09/30 02:40:38;;;;;;;5.10;4.60;;;;;;;11.44;83.45;99595.94;5053716;28;20527;-74
2022/09/30 02:43:04;;;;;;;5.05;3.90;;;;;;;11.44;83.39;99587.81;5053518;28;20421;-74
2022/09/30 02:45:37;;;;;;;5.13;4.63;;;;;;;11.44;83.36;99595.13;5053367;28;20895;-74
2022/09/30 02:48:17;;;;;;;6.28;4.72;;;;;;;11.39;83.57;99597.84;5045085;28;20756;-75
2022/09/30 02:50:53;;;;;;;8.65;5.00;;;;;;;11.41;83.42;99588.34;5052871;28;20386;-74
2022/09/30 02:53:40;;;;;;;5.80;4.87;;;;;;;11.42;83.39;99598.13;5053596;28;20878;-74
2022/09/30 02:56:11;;;;;;;10.60;4.32;;;;;;;11.41;83.47;99599.19;5044245;28;20396;-74
2022/09/30 02:58:38;;;;;;;9.27;4.82;;;;;;;11.41;83.40;99599.19;5052423;28;20456;-74
2022/09/30 03:01:08;;;;;;;6.60;4.30;;;;;;;11.42;83.24;99597.31;5053294;28;20895;-75
2022/09/30 03:03:41;;;;;;;6.20;4.75;;;;;;;11.45;83.40;99602.19;5035104;28;20488;-75
2022/09/30 03:06:06;;;;;;;5.05;4.60;;;;;;;11.48;83.38;99603.53;5035025;28;20748;-74
2022/09/30 03:08:32;;;;;;;4.85;4.45;;;;;;;11.47;83.51;99602.72;5051822;28;20405;-75
2022/09/30 03:10:57;;;;;;;5.40;4.60;;;;;;;11.46;83.64;99599.19;5059332;28;20455;-74
2022/09/30 03:13:43;;;;;;;6.10;5.03;;;;;;;11.48;83.27;99593.50;5053070;28;20469;-74
2022/09/30 03:16:26;;;;;;;6.00;5.40;;;;;;;11.45;83.29;99594.88;5052899;28;20390;-74
2022/09/30 03:19:11;;;;;;;5.60;5.00;;;;;;;11.41;83.27;99592.94;5048921;28;20428;-74
2022/09/30 03:22:10;;;;;;;5.33;4.83;;;;;;;11.42;83.37;99592.69;5043399;28;20880;-74
2022/09/30 03:24:57;;;;;;;9.60;5.60;;;;;;;11.45;83.25;99607.63;5052529;28;20398;-74
2022/09/30 03:27:31;;;;;;;5.85;4.90;;;;;;;11.45;83.42;99610.31;5039316;28;20441;-75
2022/09/30 03:30:02;;;;;;;6.40;5.50;;;;;;;11.46;83.43;99611.94;5052710;28;20482;-74
2022/09/30 03:32:37;;;;;;;8.35;6.20;;;;;;;11.47;83.39;99613.56;5052587;28;20425;-74
2022/09/30 03:35:20;;;;;;;6.53;5.90;;;;;;;11.44;83.45;99608.69;5034743;28;20429;-74
2022/09/30 03:37:57;;;;;;;7.88;5.63;;;;;;;11.42;83.65;99613.59;5050558;28;20416;-74
2022/09/30 03:40:27;;;;;;;10.07;6.18;;;;;;;11.43;83.44;99609.75;5052431;28;20401;-74
2022/09/30 03:43:01;;;;;;;9.73;5.75;;;;;;;11.39;83.62;99617.63;5051030;28;20416;-74
2022/09/30 03:45:42;;;;;;;7.22;6.25;;;;;;;11.32;83.85;99621.72;5052247;28;20410;-75
2022/09/30 03:48:10;;;;;;;9.27;5.95;;;;;;;11.29;84.14;99622.25;5050589;28;20409;-74
2022/09/30 03:50:39;;;;;;;6.90;5.93;;;;;;;11.28;84.33;99616.00;5029281;28;20472;-74
2022/09/30 03:53:10;;;;;;;7.72;6.03;;;;;;;11.28;84.31;99616.00;5052292;28;20385;-74
2022/09/30 03:55:47;;;;;;;7.20;6.25;;;;;;;11.31;84.09;99622.78;5052295;28;20740;-74
2022/09/30 03:58:14;;;;;;;8.45;6.30;;;;;;;11.33;83.91;99626.03;5046356;28;20400;-74
2022/09/30 04:00:48;;;;;;;6.95;6.13;;;;;;;11.34;83.71;99628.50;5050788;28;20492;-74
2022/09/30 04:03:14;;;;;;;7.20;5.75;;;;;;;11.36;83.76;99625.53;5051672;28;20967;-74
2022/09/30 04:05:39;;;;;;;6.87;6.23;;;;;;;11.35;83.96;99626.59;5052075;28;20401;-74
2022/09/30 04:08:04;;;;;;;9.20;6.40;;;;;;;11.33;83.67;99631.44;5032174;28;20417;-74
2022/09/30 04:10:29;;;;;;;7.33;6.37;;;;;;;11.30;83.70;99638.25;5051969;28;20879;-74
2022/09/30 04:12:56;;;;;;;6.68;6.07;;;;;;;11.23;83.81;99634.97;5051901;28;20499;-74
2022/09/30 04:15:21;;;;;;;7.25;6.18;;;;;;;11.23;83.85;99642.31;5051896;28;20397;-74
2022/09/30 04:17:47;;;;;;;6.97;6.13;;;;;;;11.21;83.82;99645.28;5051568;28;20409;-74
2022/09/30 04:20:12;;;;;;;8.27;6.00;;;;;;;11.25;83.81;99651.00;5053303;28;20393;-74
2022/09/30 04:22:37;;;;;;;8.90;6.90;;;;;;;11.27;83.61;99648.81;5051742;28;20462;-74
2022/09/30 04:25:03;;;;;;;9.47;6.70;;;;;;;11.28;83.81;99651.28;5033975;28;20441;-74
2022/09/30 04:27:29;;;;;;;11.77;6.93;;;;;;;11.26;83.88;99648.00;5046971;28;20559;-74
2022/09/30 04:29:54;;;;;;;7.97;6.75;;;;;;;11.28;84.08;99651.28;5050388;28;20413;-74
2022/09/30 04:32:21;;;;;;;9.03;6.43;;;;;;;11.31;84.04;99649.91;5049329;28;20409;-74
2022/09/30 04:34:46;;;;;;;8.80;6.78;;;;;;;11.31;84.04;99650.72;5051566;28;20402;-74
2022/09/30 04:37:12;;;;;;;9.13;7.47;;;;;;;11.32;84.06;99656.97;5053363;28;20914;-74
2022/09/30 04:39:37;;;;;;;12.95;7.72;;;;;;;11.34;84.51;99655.63;5050211;28;20397;-73
2022/09/30 04:42:03;;;;;;;8.43;7.60;;;;;;;11.35;84.25;99662.69;5028193;28;20417;-74
2022/09/30 04:44:29;;;;;;;14.40;7.67;;;;;;;11.37;84.22;99662.41;5051521;28;20394;-74
2022/09/30 04:46:54;;;;;;;10.45;8.52;;;;;;;11.36;84.24;99658.06;5050944;28;20393;-74
2022/09/30 04:49:19;;;;;;;11.03;8.00;;;;;;;11.36;84.41;99647.22;5050665;28;20405;-74
2022/09/30 04:51:45;;;;;;;15.27;8.50;;;;;;;11.38;84.13;99651.28;5051667;28;20424;-74
2022/09/30 04:54:11;;;;;;;12.83;8.13;;;;;;;11.39;83.95;99654.81;5040337;28;20409;-74
2022/09/30 04:56:37;;;;;;;11.68;7.97;;;;;;;11.37;84.01;99654.25;5047633;28;20416;-74
2022/09/30 04:59:02;;;;;;;11.07;8.52;;;;;;;11.34;84.07;99652.06;5049678;28;20397;-74
2022/09/30 05:01:27;;;;;;;9.57;7.80;;;;;;;11.33;84.01;99656.69;5050004;28;20475;-73
2022/09/30 05:03:53;;;;;;;8.27;7.32;;;;;;;11.26;83.77;99652.63;5051058;28;20397;-74
2022/09/30 05:06:19;;;;;;;7.82;7.00;;;;;;;11.25;84.25;99667.25;5048594;28;20462;-73
2022/09/30 05:08:45;;;;;;;11.07;6.97;;;;;;;11.23;83.92;99667.50;5032381;28;20757;-74
2022/09/30 05:11:16;;;;;;;8.88;7.47;;;;;;;11.23;84.01;99675.66;5046337;28;20413;-74
2022/09/30 05:13:41;;;;;;;9.02;6.85;;;;;;;11.23;83.92;99672.16;5049041;28;20424;-74
2022/09/30 05:16:08;;;;;;;12.70;7.30;;;;;;;11.21;83.86;99675.13;5048548;28;20738;-74
2022/09/30 05:18:34;;;;;;;9.85;7.07;;;;;;;11.18;83.73;99675.66;5054577;28;20393;-73
2022/09/30 05:21:00;;;;;;;8.10;6.60;;;;;;;11.16;83.84;99671.59;5052777;28;20865;-74
2022/09/30 05:23:29;;;;;;;9.52;6.60;;;;;;;11.13;83.91;99689.19;5052999;28;20422;-74
2022/09/30 05:25:55;;;;;;;10.20;7.53;;;;;;;11.11;83.86;99680.50;5053832;28;20487;-74
2022/09/30 05:28:20;;;;;;;13.03;7.57;;;;;;;11.12;83.73;99686.75;5054598;28;20381;-74
2022/09/30 05:30:48;;;;;;;9.33;7.67;;;;;;;11.10;83.95;99686.22;5051031;28;20760;-74
2022/09/30 05:33:30;;;;;;;8.60;7.28;;;;;;;11.08;83.65;99691.91;5049873;28;20871;-74
2022/09/30 05:35:59;;;;;;;8.05;7.25;;;;;;;11.02;83.67;99690.25;5051203;28;20405;-74
2022/09/30 05:38:25;;;;;;;12.00;7.80;;;;;;;10.98;83.75;99697.28;5052633;28;20565;-74
2022/09/30 05:40:50;;;;;;;11.67;7.37;;;;;;;10.98;83.79;99700.00;5053799;28;20401;-73
2022/09/30 05:43:15;;;;;;;8.33;7.33;;;;;;;10.97;83.88;99711.91;5053051;28;20417;-74
2022/09/30 05:45:40;;;;;;;13.97;8.00;;;;;;;10.96;83.79;99717.63;5054054;28;20401;-74
2022/09/30 05:48:06;;;;;;;13.03;7.70;;;;;;;10.94;83.54;99721.41;5053223;28;20484;-73
2022/09/30 05:50:31;;;;;;;16.53;8.97;;;;;;;10.91;83.58;99716.50;5054494;28;20421;-74
2022/09/30 05:52:57;;;;;;;17.70;9.40;;;;;;;10.91;83.54;99712.97;5054389;28;20404;-73
2022/09/30 05:55:22;;;;;;;15.77;9.33;;;;;;;10.89;83.65;99726.81;5054455;28;20396;-74
2022/09/30 05:57:49;;;;;;;15.38;9.00;;;;;;;10.90;83.71;99730.31;5053367;28;20405;-73
2022/09/30 06:00:16;;;;;;;13.48;8.93;;;;;;;10.89;83.86;99729.53;5036346;28;20479;-73
2022/09/30 06:02:41;;;;;;;14.45;9.27;;;;;;;10.93;83.61;99737.94;5050120;28;20420;-74
2022/09/30 06:05:08;;;;;;;10.87;8.53;;;;;;;10.99;83.61;99736.88;5054207;28;20423;-72
2022/09/30 06:07:34;;;;;;;13.68;8.95;;;;;;;11.08;83.64;99739.88;5051950;28;20822;-73
2022/09/30 06:10:00;;;;;;;15.70;7.80;;;;;;;11.14;83.47;99730.69;5054082;28;20726;-74
2022/09/30 06:19:09;;;;;;;18.03;9.20;;;;;;;11.17;83.57;99754.56;5048983;28;20450;-74
2022/09/30 06:21:43;;;;;;;23.20;11.60;;;;;;;11.21;83.50;99761.09;5050265;28;20411;-74
2022/09/30 06:24:11;;;;;;;23.35;12.20;;;;;;;11.27;83.61;99773.56;5036021;28;20406;-74
2022/09/30 06:26:37;;;;;;;11.00;8.45;;;;;;;11.28;83.62;99777.94;5052195;28;20410;-73
2022/09/30 06:29:03;;;;;;;11.57;7.68;;;;;;;11.27;83.01;99779.00;5053206;28;20416;-74
2022/09/30 06:31:29;;;;;;;12.30;7.77;;;;;;;11.30;83.27;99781.19;5052282;28;20401;-73
2022/09/30 06:33:55;;;;;;;8.80;7.38;;;;;;;11.28;83.51;99788.78;5047844;28;20406;-74
2022/09/30 06:36:21;;;;;;;11.48;7.20;;;;;;;11.32;83.04;99787.19;5051639;28;20420;-74
2022/09/30 06:38:54;;;;;;;9.43;7.53;;;;;;;11.34;83.22;99787.72;5053239;28;20833;-74
2022/09/30 06:41:23;;;;;;;9.30;6.68;;;;;;;11.37;83.14;99796.13;5052129;28;20404;-73
2022/09/30 06:43:48;;;;;;;7.30;6.05;;;;;;;11.40;83.00;99794.78;5053597;28;20389;-73
2022/09/30 06:46:13;;;;;;;9.57;6.43;;;;;;;11.44;83.00;99794.00;5052492;28;20764;-74
2022/09/30 06:48:39;;;;;;;7.23;6.33;;;;;;;11.46;82.80;99799.13;5053514;28;20397;-74
2022/09/30 06:51:08;;;;;;;9.98;6.50;;;;;;;11.48;82.97;99797.00;5055440;28;20845;-73
2022/09/30 06:53:34;;;;;;;10.43;7.05;;;;;;;11.51;82.95;99804.59;5064708;28;20393;-73
2022/09/30 06:56:00;;;;;;;10.65;7.00;;;;;;;11.59;82.71;99808.69;5052449;28;20884;-73
2022/09/30 06:58:25;;;;;;;11.35;7.28;;;;;;;11.63;82.49;99810.59;5053183;28;20392;-73
2022/09/30 07:01:03;;;;;;;9.53;7.37;;;;;;;11.67;82.54;99806.28;5052744;28;20420;-74
2022/09/30 07:03:31;;;;;;;11.23;7.85;;;;;;;11.69;82.57;99808.72;5052404;28;20409;-74
2022/09/30 07:05:59;;;;;;;12.50;8.82;;;;;;;11.71;82.96;99806.59;5047548;28;20391;-74
2022/09/30 07:08:28;;;;;;;12.52;8.38;;;;;;;11.75;82.87;99805.78;5052522;28;20426;-73
2022/09/30 07:10:53;;;;;;;15.70;9.88;;;;;;;11.80;82.80;99805.78;5052095;28;20397;-73
2022/09/30 07:13:18;;;;;;;13.67;10.53;;;;;;;11.87;82.38;99800.91;5035072;28;20986;-73
2022/09/30 07:15:43;;;;;;;14.13;12.27;;;;;;;11.90;82.26;99813.94;5051083;28;20447;-74
2022/09/30 07:18:09;;;;;;;20.60;12.23;;;;;;;11.96;82.44;99803.91;5051314;28;20508;-74
2022/09/30 07:20:34;;;;;;;15.57;12.50;;;;;;;12.00;82.27;99813.16;5052635;28;20397;-73
2022/09/30 07:23:00;;;;;;;16.53;12.60;;;;;;;12.02;82.41;99812.91;5051636;28;20509;-74
2022/09/30 07:25:25;;;;;;;13.15;11.27;;;;;;;12.06;82.09;99812.06;5057420;28;20414;-73
2022/09/30 07:27:51;;;;;;;12.97;11.57;;;;;;;12.10;82.02;99812.34;5056117;28;20496;-74
2022/09/30 07:30:17;;;;;;;13.75;10.98;;;;;;;12.16;81.72;99820.22;5052445;28;20893;-74
2022/09/30 07:32:42;;;;;;;11.63;9.82;;;;;;;12.23;81.74;99822.69;5052689;28;20481;-74
2022/09/30 07:35:07;;;;;;;13.87;10.47;;;;;;;12.30;81.34;99821.31;5052040;28;20740;-73
2022/09/30 07:37:34;;;;;;;12.10;9.67;;;;;;;12.46;81.30;99827.56;5051138;28;20409;-74
2022/09/30 07:40:01;;;;;;;11.05;9.55;;;;;;;12.69;80.39;99837.06;5051285;28;20401;-74
2022/09/30 07:42:26;;;;;;;17.42;10.20;;;;;;;12.91;80.21;99835.66;5052157;28;20524;-74
2022/09/30 07:44:52;;;;;;;11.30;9.93;;;;;;;13.15;79.46;99832.38;5034659;28;20880;-73
2022/09/30 07:47:19;;;;;;;10.93;9.80;;;;;;;13.30;78.84;99838.59;5052425;28;20390;-74
2022/09/30 07:49:45;;;;;;;13.43;9.80;;;;;;;13.37;78.75;99846.47;5052346;28;20393;-74
2022/09/30 07:52:11;;;;;;;11.65;9.63;;;;;;;13.40;78.37;99851.34;5050881;28;20405;-74
2022/09/30 07:54:38;;;;;;;11.35;9.20;;;;;;;13.42;78.34;99855.44;5051617;28;20409;-73
2022/09/30 07:57:04;;;;;;;15.52;9.88;;;;;;;13.46;78.25;99861.94;5049501;28;20437;-73
2022/09/30 07:59:32;;;;;;;14.45;9.77;;;;;;;13.42;77.75;99860.88;5050679;28;20397;-74
2022/09/30 08:01:58;;;;;;;12.10;10.38;;;;;;;13.39;77.72;99874.22;5033948;28;20903;-73
2022/09/30 08:04:25;;;;;;;10.85;9.80;;;;;;;13.33;77.60;99876.16;5051006;28;20385;-73
2022/09/30 08:06:56;;;;;;;13.02;10.77;;;;;;;13.30;78.13;99875.88;5049020;28;20413;-73
2022/09/30 08:09:23;;;;;;;12.18;10.02;;;;;;;13.24;77.71;99869.63;5051961;28;20389;-73
2022/09/30 08:11:49;;;;;;;12.40;9.88;;;;;;;13.20;77.51;99884.06;5051152;28;20423;-73
2022/09/30 08:14:24;;;;;;;16.65;12.50;;;;;;;13.19;77.28;99874.28;5049740;28;20875;-73
2022/09/30 08:16:49;;;;;;;13.23;10.00;;;;;;;13.26;77.37;99874.81;5057687;28;20386;-73
2022/09/30 08:19:21;;;;;;;12.93;9.48;;;;;;;13.34;77.09;99877.75;5049703;28;20811;-74
2022/09/30 08:21:47;;;;;;;14.20;9.32;;;;;;;13.37;76.87;99877.19;5049332;28;20437;-73
2022/09/30 08:24:13;;;;;;;13.10;9.83;;;;;;;13.43;76.48;99884.28;5047586;28;20876;-73
2022/09/30 08:26:39;;;;;;;12.88;9.95;;;;;;;13.47;75.50;99890.78;5050651;28;20389;-74
2022/09/30 08:29:04;;;;;;;11.75;10.05;;;;;;;13.52;75.42;99896.22;5047649;28;20464;-73
2022/09/30 08:31:32;;;;;;;13.13;10.73;;;;;;;13.56;75.28;99898.38;5051408;28;20393;-73
2022/09/30 08:33:58;;;;;;;9.90;8.90;;;;;;;13.57;75.09;99895.38;5052106;28;20495;-73
2022/09/30 08:36:25;;;;;;;12.07;9.30;;;;;;;13.65;74.83;99902.97;5030297;28;20401;-73
2022/09/30 08:38:50;;;;;;;14.13;10.05;;;;;;;13.75;74.77;99902.13;5051160;28;20400;-74
2022/09/30 08:41:28;;;;;;;12.80;9.90;;;;;;;13.89;74.50;99900.44;5051104;28;20393;-73
2022/09/30 08:44:06;;;;;;;10.60;9.47;;;;;;;14.00;73.88;99908.25;5050589;28;20808;-73
2022/09/30 08:46:34;;;;;;;9.43;8.43;;;;;;;13.99;73.96;99908.53;5050765;28;20424;-73
2022/09/30 08:49:29;;;;;;;10.80;9.55;;;;;;;14.11;73.70;99921.81;5049027;28;20428;-73
2022/09/30 08:51:58;;;;;;;12.82;10.13;;;;;;;14.18;73.12;99928.59;5057923;28;20942;-74
2022/09/30 08:54:28;;;;;;;19.23;9.77;;;;;;;14.21;72.58;99917.13;5050770;28;20484;-73
2022/09/30 08:56:53;;;;;;;7.30;6.53;;;;;;;14.24;73.05;99926.66;5042737;28;20402;-73
2022/09/30 08:59:36;;;;;;;11.27;7.10;;;;;;;14.21;73.18;99929.94;5051135;28;20392;-73
2022/09/30 09:02:19;;;;;;;20.50;7.43;;;;;;;14.18;73.59;99934.06;5050985;28;20496;-72
2022/09/30 09:04:48;;;;;;;12.30;8.18;;;;;;;14.04;74.14;99942.03;5049339;28;20740;-73
2022/09/30 09:07:26;;;;;;;7.88;7.07;;;;;;;13.96;74.37;99950.75;5044489;28;20470;-71
2022/09/30 09:10:18;;;;;;;8.55;7.28;;;;;;;13.90;74.78;99940.16;5049806;28;20757;-74
2022/09/30 09:13:21;;;;;;;7.87;6.83;;;;;;;13.77;74.89;99944.31;5050740;28;20409;-73
2022/09/30 09:15:46;;;;;;;9.47;7.67;;;;;;;13.74;75.56;99944.88;5042485;28;20408;-72
2022/09/30 09:18:36;;;;;;;9.50;7.70;;;;;;;13.86;75.39;99952.75;5049073;28;20405;-72
2022/09/30 09:21:20;;;;;;;9.75;8.73;;;;;;;13.99;74.80;99942.03;5046394;28;20480;-73
2022/09/30 09:23:48;;;;;;;9.77;7.07;;;;;;;14.09;74.33;99927.56;5049993;28;20444;-72
2022/09/30 09:26:14;;;;;;;8.15;6.90;;;;;;;14.20;73.86;99931.03;5050797;28;20393;-73
2022/09/30 09:29:04;;;;;;;8.50;7.70;;;;;;;14.29;73.53;99921.97;5051056;28;20431;-72
2022/09/30 09:31:30;;;;;;;11.60;8.30;;;;;;;14.57;73.14;99925.09;5044870;28;20401;-72
2022/09/30 09:34:00;;;;;;;11.80;7.57;;;;;;;14.76;72.46;99918.69;5050087;28;20405;-74
2022/09/30 09:36:38;;;;;;;8.60;7.80;;;;;;;14.96;71.68;99918.50;5032958;28;20405;-75
2022/09/30 09:39:03;;;;;;;9.38;7.32;;;;;;;15.13;71.02;99923.53;5050649;28;20762;-74
2022/09/30 09:41:47;;;;;;;8.03;7.23;;;;;;;15.36;70.51;99921.94;5049281;28;20425;-74
2022/09/30 09:44:28;;;;;;;8.70;7.18;;;;;;;15.89;68.46;99920.00;5050035;28;20432;-74
2022/09/30 09:47:04;;;;;;;9.90;7.90;;;;;;;15.78;67.82;99924.75;5047592;28;20398;-74
2022/09/30 09:49:37;;;;;;;9.18;7.32;;;;;;;15.96;68.17;99923.19;5050537;28;20401;-74
2022/09/30 09:52:11;;;;;;;9.23;7.50;;;;;;;16.18;67.23;99928.06;5031651;28;20459;-73
2022/09/30 09:54:40;;;;;;;7.53;6.83;;;;;;;16.15;67.14;99925.94;5050893;28;20432;-73
2022/09/30 09:57:10;;;;;;;10.82;7.72;;;;;;;15.99;67.32;99926.13;5047819;28;20394;-74
2022/09/30 09:59:53;;;;;;;12.65;7.95;;;;;;;15.90;67.63;99927.91;5055181;28;20397;-74
2022/09/30 10:02:30;;;;;;;9.35;7.80;;;;;;;15.94;67.76;99928.09;5035345;28;20413;-74
2022/09/30 10:05:00;;;;;;;8.00;7.20;;;;;;;15.98;67.32;99921.78;5054092;28;20385;-73
2022/09/30 10:07:28;;;;;;;9.87;7.70;;;;;;;16.01;67.17;99928.56;5048781;28;20416;-74
2022/09/30 10:10:17;;;;;;;8.47;7.27;;;;;;;16.08;67.04;99926.28;5022574;28;20406;-74
2022/09/30 10:12:47;;;;;;;8.25;6.93;;;;;;;16.26;67.02;99930.16;5053320;28;20894;-74
2022/09/30 10:15:22;;;;;;;10.05;7.50;;;;;;;16.84;65.70;99941.59;5051490;28;20494;-74
2022/09/30 10:17:53;;;;;;;8.40;6.93;;;;;;;17.01;65.09;99931.75;5051017;28;20911;-74
2022/09/30 10:20:38;;;;;;;12.40;7.45;;;;;;;17.49;63.55;99939.63;5053117;28;20460;-74
2022/09/30 10:23:29;;;;;;;8.27;6.95;;;;;;;17.61;62.85;99938.06;5052076;28;20551;-73
2022/09/30 10:25:55;;;;;;;10.80;7.47;;;;;;;17.41;63.00;99946.63;5051172;28;20413;-74
2022/09/30 10:28:28;;;;;;;7.70;6.70;;;;;;;17.09;63.32;99941.97;5035012;28;20485;-73
2022/09/30 10:31:06;;;;;;;9.88;6.70;;;;;;;16.72;64.08;99942.06;5053699;28;20879;-73
2022/09/30 10:33:49;;;;;;;9.90;6.70;;;;;;;16.54;64.86;99938.19;5047379;28;20915;-74
2022/09/30 10:36:20;;;;;;;9.90;6.65;;;;;;;16.46;64.77;99940.81;5053173;28;20725;-74
2022/09/30 10:39:05;;;;;;;8.45;7.60;;;;;;;16.28;65.43;99936.94;5051483;28;20405;-74
2022/09/30 10:41:32;;;;;;;9.80;7.32;;;;;;;16.49;65.33;99946.50;5045081;28;20423;-74
2022/09/30 10:44:01;;;;;;;8.18;6.65;;;;;;;18.34;60.41;99934.31;5053011;28;20405;-73
2022/09/30 10:46:34;;;;;;;7.18;6.55;;;;;;;19.81;56.52;99941.63;5050142;28;20412;-73
2022/09/30 10:49:24;;;;;;;8.38;6.18;;;;;;;21.56;51.37;99939.91;5053101;28;20385;-73
2022/09/30 10:51:49;;;;;;;6.82;6.10;;;;;;;21.60;50.60;99942.81;5061682;28;20545;-73
2022/09/30 10:54:50;;;;;;;6.80;5.83;;;;;;;22.99;47.55;99942.41;5051318;28;20408;-73
2022/09/30 10:57:21;;;;;;;6.97;6.28;;;;;;;22.23;48.51;99941.84;5039729;28;20470;-74
2022/09/30 10:59:47;;;;;;;7.28;5.75;;;;;;;21.38;50.20;99949.34;5053294;28;20386;-74
2022/09/30 11:02:25;;;;;;;8.35;6.75;;;;;;;20.20;52.73;99942.38;5053109;28;20441;-73
2022/09/30 11:05:18;;;;;;;8.05;6.90;;;;;;;19.12;55.37;99950.31;5052373;28;20476;-73
2022/09/30 11:08:09;;;;;;;8.18;6.68;;;;;;;18.65;56.94;99940.75;5049699;28;20816;-73
2022/09/30 11:10:52;;;;;;;6.78;5.97;;;;;;;18.42;57.88;99943.75;5050440;28;20523;-74
2022/09/30 11:13:26;;;;;;;6.47;5.68;;;;;;;18.31;58.40;99945.91;5053132;28;20392;-73
2022/09/30 11:16:00;;;;;;;7.85;6.15;;;;;;;19.12;57.13;99931.09;5030802;28;20409;-73
2022/09/30 11:18:31;;;;;;;10.07;5.72;;;;;;;20.27;54.64;99935.63;5052764;28;20396;-73
2022/09/30 11:21:03;;;;;;;6.53;5.38;;;;;;;20.42;54.36;99927.69;5035124;28;20408;-73
2022/09/30 11:23:39;;;;;;;6.13;5.30;;;;;;;20.48;54.08;99929.16;5048905;28;20420;-73
2022/09/30 11:26:15;;;;;;;6.13;5.28;;;;;;;20.30;53.89;99927.53;5052082;28;23211;-73
2022/09/30 11:28:43;;;;;;;5.70;5.18;;;;;;;20.09;54.25;99934.75;5022169;28;20454;-73
2022/09/30 11:31:20;;;;;;;7.68;5.57;;;;;;;19.67;54.87;99934.31;5051407;28;20416;-73
2022/09/30 11:34:03;;;;;;;7.50;5.47;;;;;;;19.37;55.43;99932.34;5051986;28;20417;-73
2022/09/30 11:36:56;;;;;;;5.90;5.32;;;;;;;19.77;55.13;99935.13;5039061;28;20386;-73
2022/09/30 11:39:55;;;;;;;6.25;5.40;;;;;;;20.36;53.85;99940.00;5034734;28;20427;-73
2022/09/30 11:42:45;;;;;;;5.63;4.85;;;;;;;20.96;52.67;99940.00;5037193;28;20934;-74
2022/09/30 11:45:23;;;;;;;6.60;5.03;;;;;;;21.60;50.48;99929.00;5051904;28;20498;-74
2022/09/30 11:47:55;;;;;;;6.53;4.72;;;;;;;21.90;49.74;99940.91;5052363;28;20394;-73
2022/09/30 11:50:29;;;;;;;6.05;4.63;;;;;;;22.36;48.82;99940.78;5052412;28;20929;-74
2022/09/30 11:53:25;;;;;;;5.75;4.88;;;;;;;23.57;45.41;99938.56;5052387;28;20405;-73
2022/09/30 11:56:00;;;;;;;6.72;4.82;;;;;;;24.40;42.97;99929.78;5050431;28;20405;-73
2022/09/30 11:58:37;;;;;;;7.47;4.70;;;;;;;25.00;41.40;99930.75;5054800;28;20769;-73